Ryno, Nebraska
Current Conditions -  °F | °C
As of 9:53 AM on Friday 19 Dec 2014 (Local Time) from KBBW Reporting Station
Haze Haze  
Wind Chill: 17°   Ceiling: Unl
Heat Index: 23°   Visibility: 4mi
Dew Point: 22°   Wind: 5mph
Humidity: 96%   Direction: 240°WSW
Pressure: 30.09"   Gusts: NA
Location:  41.1872°N, 100.067°W
Report Text: KBBW 191553Z AUTO 24004KT 4SM BR CLR M05/M06 A3009 RMK AO2 SLP220 I1001 T10501056
Loading
Personal Weather Stations






























Interactive Weather Map New forecast layout! Learn more

10-Day Weather Forecast

Advertisements
Track Severe Weather on mobile